createdAt,value
2023-05-02T00:00:38.664Z,100411.91
2023-05-02T00:03:43.685Z,100405.94
2023-05-02T00:06:47.193Z,100413.34
2023-05-02T00:09:49.721Z,100410.66
2023-05-02T00:12:52.234Z,100406.31
2023-05-02T00:15:54.792Z,100414.94
2023-05-02T00:18:57.617Z,100410.81
2023-05-02T00:22:00.778Z,100417.59
2023-05-02T00:25:03.504Z,100406.06
2023-05-02T00:28:06.168Z,100409.78
2023-05-02T00:31:13.463Z,100411.66
2023-05-02T00:34:16.099Z,100409.78
2023-05-02T00:37:18.836Z,100412.19
2023-05-02T00:40:21.584Z,100414.72
2023-05-02T00:43:24.116Z,100414.31
2023-05-02T00:46:27.225Z,100419.44
2023-05-02T00:49:31.110Z,100422.69
2023-05-02T00:52:33.667Z,100418.78
2023-05-02T00:55:36.904Z,100408.84
2023-05-02T00:58:41.235Z,100414.00
2023-05-02T01:02:11.611Z,100416.66
2023-05-02T01:05:42.352Z,100416.06
2023-05-02T01:09:00.152Z,100422.84
2023-05-02T01:12:32.885Z,100419.13
2023-05-02T01:15:39.311Z,100415.38
2023-05-02T01:18:43.971Z,100412.53
2023-05-02T01:21:48.394Z,100409.47
2023-05-02T01:25:14.369Z,100413.22
2023-05-02T01:28:28.993Z,100408.66
2023-05-02T01:31:35.924Z,100407.44
2023-05-02T01:34:43.253Z,100408.69
2023-05-02T01:37:48.387Z,100408.28
2023-05-02T01:40:52.533Z,100408.94
2023-05-02T01:43:57.899Z,100406.47
2023-05-02T01:47:03.402Z,100401.75
2023-05-02T01:50:07.915Z,100398.47
2023-05-02T01:53:13.850Z,100396.66
2023-05-02T01:56:19.643Z,100391.50
2023-05-02T01:59:24.412Z,100393.34
2023-05-02T02:02:29.362Z,100395.41
2023-05-02T02:05:33.887Z,100396.06
2023-05-02T02:08:36.516Z,100396.44
2023-05-02T02:11:52.631Z,100393.56
2023-05-02T02:15:06.981Z,100397.06
2023-05-02T02:18:17.872Z,100391.94
2023-05-02T02:21:21.633Z,100393.56
2023-05-02T02:24:26.125Z,100391.50
2023-05-02T02:27:30.050Z,100387.00
2023-05-02T02:30:33.022Z,100395.25
2023-05-02T02:33:36.124Z,100389.28
2023-05-02T02:36:55.379Z,100388.22
2023-05-02T02:40:09.773Z,100390.09
2023-05-02T02:43:27.554Z,100391.34
2023-05-02T02:46:58.341Z,100392.75
2023-05-02T02:50:17.001Z,100385.53
2023-05-02T02:53:27.650Z,100391.50
2023-05-02T02:56:40.390Z,100394.13
2023-05-02T02:59:51.456Z,100391.81
2023-05-02T03:02:54.788Z,100391.19
2023-05-02T03:05:57.642Z,100395.47
2023-05-02T03:09:01.665Z,100396.44
2023-05-02T03:12:06.159Z,100401.16
2023-05-02T03:15:24.227Z,100397.22
2023-05-02T03:18:28.138Z,100399.31
2023-05-02T03:21:31.796Z,100393.34
2023-05-02T03:24:40.563Z,100390.25
2023-05-02T03:27:46.684Z,100397.81
2023-05-02T03:30:50.560Z,100397.16
2023-05-02T03:33:54.548Z,100400.16
2023-05-02T03:36:57.905Z,100401.53
2023-05-02T03:40:01.568Z,100407.06
2023-05-02T03:43:05.135Z,100412.06
2023-05-02T03:46:11.513Z,100418.09
2023-05-02T03:49:19.881Z,100412.50
2023-05-02T03:52:25.452Z,100417.47
2023-05-02T03:55:29.719Z,100415.88
2023-05-02T03:58:33.535Z,100419.97
2023-05-02T04:01:36.455Z,100422.44
2023-05-02T04:04:41.180Z,100428.78
2023-05-02T04:07:45.967Z,100431.00
2023-05-02T04:10:52.263Z,100430.88
2023-05-02T04:13:55.057Z,100432.56
2023-05-02T04:16:57.687Z,100428.09
2023-05-02T04:20:11.607Z,100425.03
2023-05-02T04:23:18.153Z,100431.81
2023-05-02T04:26:22.878Z,100429.34
2023-05-02T04:29:31.923Z,100426.75
2023-05-02T04:32:34.984Z,100438.13
2023-05-02T04:35:42.274Z,100439.81
2023-05-02T04:38:47.625Z,100439.44
2023-05-02T04:41:52.158Z,100441.31
2023-05-02T04:44:55.530Z,100445.19
2023-05-02T04:47:58.245Z,100458.38
2023-05-02T04:51:00.929Z,100454.66
2023-05-02T04:54:04.762Z,100448.50
2023-05-02T04:57:08.084Z,100452.66
2023-05-02T05:00:13.922Z,100455.97
2023-05-02T05:03:19.046Z,100452.66
2023-05-02T05:06:22.712Z,100446.91
2023-05-02T05:09:26.088Z,100453.28
2023-05-02T05:12:29.718Z,100455.94
2023-05-02T05:15:32.692Z,100464.19
2023-05-02T05:18:40.944Z,100456.75
2023-05-02T05:21:46.523Z,100458.81
2023-05-02T05:24:56.679Z,100462.09
2023-05-02T05:28:05.282Z,100468.03
2023-05-02T05:31:17.212Z,100471.25
2023-05-02T05:34:25.217Z,100474.69
2023-05-02T05:37:30.599Z,100482.47
2023-05-02T05:40:35.874Z,100484.91
2023-05-02T05:43:38.645Z,100481.00
2023-05-02T05:46:42.320Z,100488.69
2023-05-02T05:49:47.282Z,100488.78
2023-05-02T05:52:50.008Z,100494.44
2023-05-02T05:55:54.257Z,100495.19
2023-05-02T05:58:57.310Z,100492.28
2023-05-02T06:02:00.549Z,100501.16
2023-05-02T06:05:03.700Z,100496.19
2023-05-02T06:08:07.757Z,100499.38
2023-05-02T06:11:11.799Z,100501.84
2023-05-02T06:14:15.091Z,100501.22
2023-05-02T06:17:18.495Z,100497.63
2023-05-02T06:20:21.283Z,100498.16
2023-05-02T06:23:24.084Z,100507.34
2023-05-02T06:26:26.739Z,100510.63
2023-05-02T06:29:29.520Z,100503.72
2023-05-02T06:32:32.417Z,100509.38
2023-05-02T06:35:35.021Z,100506.78
2023-05-02T06:38:37.730Z,100506.16
2023-05-02T06:41:40.365Z,100502.81
2023-05-02T06:44:42.897Z,100507.19
2023-05-02T06:47:45.824Z,100505.34
2023-05-02T06:50:49.835Z,100512.41
2023-05-02T06:53:54.660Z,100508.53
2023-05-02T06:57:02.974Z,100505.00
2023-05-02T07:00:08.706Z,100510.97
2023-05-02T07:03:15.210Z,100508.41
2023-05-02T07:06:19.609Z,100505.72
2023-05-02T07:09:22.194Z,100498.72
2023-05-02T07:12:26.847Z,100510.75
2023-05-02T07:15:29.613Z,100505.00
2023-05-02T07:18:32.237Z,100508.97
2023-05-02T07:21:34.848Z,100518.16
2023-05-02T07:24:41.608Z,100501.38
2023-05-02T07:27:44.932Z,100494.53
2023-05-02T07:30:47.655Z,100506.56
2023-05-02T07:33:50.717Z,100505.00
2023-05-02T07:36:53.745Z,100501.78
2023-05-02T07:39:56.639Z,100499.25
2023-05-02T07:43:02.260Z,100498.97
2023-05-02T07:46:06.850Z,100506.03
2023-05-02T07:49:09.681Z,100499.88
2023-05-02T07:52:12.539Z,100499.78
2023-05-02T07:55:15.298Z,100500.00
2023-05-02T07:58:17.848Z,100506.56
2023-05-02T08:01:21.575Z,100505.03
2023-05-02T08:04:24.510Z,100495.63
2023-05-02T08:07:27.199Z,100503.50
2023-05-02T08:10:29.854Z,100503.19
2023-05-02T08:13:32.600Z,100504.06
2023-05-02T08:16:35.311Z,100501.34
2023-05-02T08:19:38.042Z,100499.50
2023-05-02T08:22:40.665Z,100501.84
2023-05-02T08:25:43.313Z,100506.22
2023-05-02T08:28:46.110Z,100499.72
2023-05-02T08:31:48.798Z,100509.94
2023-05-02T08:34:56.135Z,100503.22
2023-05-02T08:37:59.232Z,100506.16
2023-05-02T08:41:02.194Z,100504.91
2023-05-02T08:44:06.746Z,100506.34
2023-05-02T08:47:11.447Z,100512.03
2023-05-02T08:50:18.065Z,100503.91
2023-05-02T08:53:21.659Z,100496.41
2023-05-02T08:56:25.427Z,100495.09
2023-05-02T08:59:28.178Z,100499.59
2023-05-02T09:02:39.841Z,100493.50
2023-05-02T09:05:43.129Z,100493.66
2023-05-02T09:08:49.528Z,100490.78
2023-05-02T09:11:52.850Z,100485.94
2023-05-02T09:15:19.852Z,100489.94
2023-05-02T09:18:23.495Z,100477.81
2023-05-02T09:21:37.434Z,100483.84
2023-05-02T09:24:40.836Z,100480.19
2023-05-02T09:27:56.993Z,100486.81
2023-05-02T09:31:11.338Z,100487.34
2023-05-02T09:34:17.600Z,100494.13
2023-05-02T09:37:36.142Z,100487.03
2023-05-02T09:40:39.974Z,100487.91
2023-05-02T09:43:43.499Z,100493.91
2023-05-02T09:46:52.064Z,100483.53
2023-05-02T09:49:54.862Z,100481.84
2023-05-02T09:53:12.397Z,100474.59
2023-05-02T09:56:15.458Z,100474.31
2023-05-02T09:59:19.308Z,100476.16
2023-05-02T10:02:22.930Z,100475.06
2023-05-02T10:05:27.480Z,100472.38
2023-05-02T10:08:34.896Z,100470.59
2023-05-02T10:11:40.788Z,100466.00
2023-05-02T10:14:50.957Z,100467.66
2023-05-02T10:17:55.406Z,100459.06
2023-05-02T10:21:01.674Z,100456.22
2023-05-02T10:24:06.045Z,100460.84
2023-05-02T10:27:08.787Z,100452.16
2023-05-02T10:30:13.767Z,100446.66
2023-05-02T10:33:21.235Z,100451.03
2023-05-02T10:36:23.791Z,100450.69
2023-05-02T10:39:28.277Z,100452.66
2023-05-02T10:42:31.813Z,100445.94
2023-05-02T10:45:36.617Z,100460.34
2023-05-02T10:48:39.421Z,100456.97
2023-05-02T10:51:43.013Z,100462.72
2023-05-02T10:54:46.399Z,100451.94
2023-05-02T10:58:01.217Z,100457.41
2023-05-02T11:01:22.894Z,100443.75
2023-05-02T11:04:25.943Z,100450.25
2023-05-02T11:07:29.373Z,100445.66
2023-05-02T11:10:35.271Z,100449.88
2023-05-02T11:13:51.191Z,100444.34
2023-05-02T11:16:59.986Z,100437.69
2023-05-02T11:20:05.589Z,100442.28
2023-05-02T11:23:18.302Z,100438.38
2023-05-02T11:26:26.288Z,100437.03
2023-05-02T11:30:06.744Z,100427.28
2023-05-02T11:33:09.520Z,100422.53
2023-05-02T11:36:12.420Z,100426.19
2023-05-02T11:39:21.994Z,100422.00
2023-05-02T11:42:30.804Z,100414.22
2023-05-02T11:45:36.315Z,100415.13
2023-05-02T11:48:39.742Z,100415.72
2023-05-02T11:51:42.609Z,100415.13
2023-05-02T11:54:45.797Z,100408.50
2023-05-02T11:57:48.395Z,100402.75
2023-05-02T12:00:52.621Z,100399.91
2023-05-02T12:04:07.100Z,100400.00
2023-05-02T12:07:12.317Z,100387.75
2023-05-02T12:10:15.923Z,100382.84
2023-05-02T12:13:19.782Z,100390.41
2023-05-02T12:16:23.101Z,100389.59
2023-05-02T12:19:27.704Z,100390.50
2023-05-02T12:22:31.125Z,100377.16
2023-05-02T12:25:39.299Z,100374.22
2023-05-02T12:28:52.914Z,100384.22
2023-05-02T12:31:56.134Z,100383.00
2023-05-02T12:34:59.723Z,100386.00
2023-05-02T12:38:20.480Z,100384.84
2023-05-02T12:41:34.161Z,100380.06
2023-05-02T12:44:41.541Z,100376.63
2023-05-02T12:47:47.451Z,100377.56
2023-05-02T12:50:50.724Z,100383.59
2023-05-02T12:53:53.434Z,100370.91
2023-05-02T12:56:56.057Z,100376.91
2023-05-02T12:59:59.248Z,100368.16
2023-05-02T13:03:02.235Z,100369.91
2023-05-02T13:06:05.224Z,100359.16
2023-05-02T13:09:07.994Z,100379.50
2023-05-02T13:12:11.891Z,100371.84
2023-05-02T13:15:15.434Z,100361.25
2023-05-02T13:18:18.216Z,100358.13
2023-05-02T13:21:21.093Z,100350.31
2023-05-02T13:24:23.718Z,100359.69
2023-05-02T13:27:26.814Z,100350.16
2023-05-02T13:30:29.559Z,100352.28
2023-05-02T13:33:32.440Z,100348.63
2023-05-02T13:36:36.457Z,100349.22
2023-05-02T13:39:39.301Z,100350.81
2023-05-02T13:42:41.888Z,100338.13
2023-05-02T13:45:44.850Z,100333.78
2023-05-02T13:48:47.722Z,100341.75
2023-05-02T13:51:51.345Z,100341.28
2023-05-02T13:54:53.817Z,100336.56
2023-05-02T13:57:56.432Z,100345.34
2023-05-02T14:00:59.273Z,100343.94
2023-05-02T14:04:07.045Z,100343.56
2023-05-02T14:07:09.768Z,100342.47
2023-05-02T14:10:12.364Z,100341.56
2023-05-02T14:13:15.047Z,100342.75
2023-05-02T14:16:17.656Z,100343.72
2023-05-02T14:19:20.180Z,100346.75
2023-05-02T14:22:22.729Z,100347.16
2023-05-02T14:25:25.279Z,100348.97
2023-05-02T14:28:27.927Z,100342.66
2023-05-02T14:31:30.992Z,100340.25
2023-05-02T14:34:33.598Z,100334.38
2023-05-02T14:37:36.114Z,100338.59
2023-05-02T14:40:38.880Z,100342.00
2023-05-02T14:43:41.456Z,100342.66
2023-05-02T14:46:44.020Z,100335.13
2023-05-02T14:49:46.928Z,100338.59
2023-05-02T14:52:50.048Z,100343.84
2023-05-02T14:55:52.751Z,100343.28
2023-05-02T14:58:55.370Z,100338.38
2023-05-02T15:01:58.260Z,100336.34
2023-05-02T15:05:01.456Z,100341.06
2023-05-02T15:08:04.130Z,100337.94
2023-05-02T15:11:06.862Z,100340.25
2023-05-02T15:14:09.503Z,100337.22
2023-05-02T15:17:12.083Z,100337.00
2023-05-02T15:20:14.764Z,100337.22
2023-05-02T15:23:17.238Z,100329.97
2023-05-02T15:26:19.673Z,100327.63
2023-05-02T15:29:22.144Z,100331.06
2023-05-02T15:32:24.790Z,100330.50
2023-05-02T15:35:27.325Z,100326.88
2023-05-02T15:38:30.161Z,100326.28
2023-05-02T15:41:33.441Z,100323.03
2023-05-02T15:44:39.702Z,100326.38
2023-05-02T15:47:42.259Z,100321.78
2023-05-02T15:50:45.681Z,100323.91
2023-05-02T15:53:52.174Z,100323.50
2023-05-02T15:56:55.074Z,100329.56
2023-05-02T15:59:57.604Z,100323.38
2023-05-02T16:03:03.939Z,100323.91
2023-05-02T16:06:07.689Z,100317.88
2023-05-02T16:09:11.319Z,100323.56
2023-05-02T16:12:14.761Z,100324.72
2023-05-02T16:15:17.401Z,100325.81
2023-05-02T16:18:20.144Z,100322.53
2023-05-02T16:21:22.640Z,100317.09
2023-05-02T16:24:26.049Z,100328.03
2023-05-02T16:27:28.616Z,100332.38
2023-05-02T16:30:31.194Z,100323.44
2023-05-02T16:33:34.445Z,100321.28
2023-05-02T16:36:36.986Z,100321.28
2023-05-02T16:39:40.063Z,100327.25
2023-05-02T16:42:43.240Z,100318.88
2023-05-02T16:45:47.193Z,100324.66
2023-05-02T16:48:49.774Z,100320.34
2023-05-02T16:51:54.939Z,100326.13
2023-05-02T16:54:57.901Z,100322.94
2023-05-02T16:58:00.771Z,100323.22
2023-05-02T17:01:03.496Z,100328.38
2023-05-02T17:04:06.156Z,100322.16
2023-05-02T17:07:11.741Z,100330.63
2023-05-02T17:10:14.894Z,100331.72
2023-05-02T17:13:17.809Z,100334.22
2023-05-02T17:16:21.181Z,100338.31
2023-05-02T17:19:24.373Z,100333.16
2023-05-02T17:22:27.072Z,100340.50
2023-05-02T17:25:30.663Z,100344.00
2023-05-02T17:28:33.406Z,100347.81
2023-05-02T17:31:36.070Z,100347.28
2023-05-02T17:34:38.956Z,100345.94
2023-05-02T17:37:41.485Z,100348.91
2023-05-02T17:40:44.613Z,100343.19
2023-05-02T17:43:48.743Z,100353.78
2023-05-02T17:46:51.616Z,100375.47
2023-05-02T17:49:54.432Z,100383.38
2023-05-02T17:52:58.640Z,100379.16
2023-05-02T17:56:04.776Z,100387.16
2023-05-02T17:59:07.291Z,100386.09
2023-05-02T18:02:10.407Z,100390.94
2023-05-02T18:05:13.386Z,100388.69
2023-05-02T18:08:16.635Z,100394.34
2023-05-02T18:11:21.052Z,100393.97
2023-05-02T18:14:23.897Z,100401.72
2023-05-02T18:17:27.055Z,100399.34
2023-05-02T18:20:30.116Z,100402.09
2023-05-02T18:23:33.873Z,100395.75
2023-05-02T18:26:36.652Z,100404.31
2023-05-02T18:29:39.403Z,100412.69
2023-05-02T18:32:42.467Z,100422.94
2023-05-02T18:35:49.154Z,100415.84
2023-05-02T18:38:52.032Z,100423.38
2023-05-02T18:41:54.808Z,100432.31
2023-05-02T18:44:57.409Z,100428.47
2023-05-02T18:48:00.328Z,100437.94
2023-05-02T18:51:03.163Z,100434.34
2023-05-02T18:54:06.076Z,100435.69
2023-05-02T18:57:08.701Z,100451.53
2023-05-02T19:00:12.571Z,100451.25
2023-05-02T19:03:15.856Z,100444.91
2023-05-02T19:06:18.976Z,100454.63
2023-05-02T19:09:22.102Z,100458.13
2023-05-02T19:12:24.920Z,100463.28
2023-05-02T19:15:28.090Z,100467.59
2023-05-02T19:18:30.878Z,100468.19
2023-05-02T19:21:36.924Z,100477.97
2023-05-02T19:24:39.419Z,100477.03
2023-05-02T19:27:44.311Z,100489.88
2023-05-02T19:30:47.115Z,100496.28
2023-05-02T19:33:51.653Z,100502.38
2023-05-02T19:36:54.944Z,100489.50
2023-05-02T19:39:58.267Z,100495.66
2023-05-02T19:43:00.993Z,100505.34
2023-05-02T19:46:04.630Z,100522.47
2023-05-02T19:49:07.625Z,100542.13
2023-05-02T19:52:10.579Z,100558.13
2023-05-02T19:55:13.622Z,100554.31
2023-05-02T19:58:16.274Z,100553.69
2023-05-02T20:01:19.013Z,100547.13
2023-05-02T20:04:21.664Z,100541.88
2023-05-02T20:07:24.507Z,100538.47
2023-05-02T20:10:27.373Z,100542.38
2023-05-02T20:13:30.310Z,100541.47
2023-05-02T20:16:33.003Z,100542.75
2023-05-02T20:19:35.633Z,100542.28
2023-05-02T20:22:40.067Z,100544.75
2023-05-02T20:25:43.171Z,100557.94
2023-05-02T20:28:45.703Z,100547.91
2023-05-02T20:31:48.523Z,100555.13
2023-05-02T20:34:51.238Z,100573.44
2023-05-02T20:37:54.001Z,100579.06
2023-05-02T20:40:57.585Z,100568.25
2023-05-02T20:44:02.696Z,100558.06
2023-05-02T20:47:05.295Z,100549.56
2023-05-02T20:50:09.497Z,100550.53
2023-05-02T20:53:12.034Z,100557.22
2023-05-02T20:56:15.011Z,100551.81
2023-05-02T20:59:17.737Z,100554.19
2023-05-02T21:02:22.298Z,100559.13
2023-05-02T21:05:24.783Z,100557.88
2023-05-02T21:08:27.333Z,100557.38
2023-05-02T21:11:29.922Z,100551.31
2023-05-02T21:14:32.552Z,100554.66
2023-05-02T21:17:35.226Z,100553.75
2023-05-02T21:20:39.677Z,100566.69
2023-05-02T21:23:42.218Z,100565.38
2023-05-02T21:26:45.315Z,100564.22
2023-05-02T21:29:48.948Z,100568.88
2023-05-02T21:32:51.650Z,100567.72
2023-05-02T21:35:57.778Z,100581.47
2023-05-02T21:39:00.307Z,100586.06
2023-05-02T21:42:03.190Z,100573.16
2023-05-02T21:45:06.731Z,100565.63
2023-05-02T21:48:09.301Z,100573.97
2023-05-02T21:51:14.085Z,100568.19
2023-05-02T21:54:16.917Z,100582.47
2023-05-02T21:57:19.497Z,100587.63
2023-05-02T22:00:22.791Z,100601.44
2023-05-02T22:03:25.530Z,100605.06
2023-05-02T22:06:28.590Z,100593.34
2023-05-02T22:09:33.400Z,100582.81
2023-05-02T22:12:36.333Z,100594.63
2023-05-02T22:15:46.259Z,100600.81
2023-05-02T22:18:49.748Z,100601.06
2023-05-02T22:21:52.358Z,100602.28
2023-05-02T22:24:54.978Z,100607.13
2023-05-02T22:28:01.065Z,100619.97
2023-05-02T22:31:04.037Z,100632.13
2023-05-02T22:34:06.603Z,100651.91
2023-05-02T22:37:09.112Z,100651.31
2023-05-02T22:40:12.723Z,100665.75
2023-05-02T22:43:15.751Z,100664.88
2023-05-02T22:46:18.626Z,100659.50
2023-05-02T22:49:21.484Z,100641.91
2023-05-02T22:52:27.434Z,100641.94
2023-05-02T22:55:30.081Z,100639.06
2023-05-02T22:58:32.713Z,100632.19
2023-05-02T23:01:35.266Z,100629.69
2023-05-02T23:04:37.914Z,100650.75
2023-05-02T23:07:40.541Z,100652.31
2023-05-02T23:10:43.071Z,100649.41
2023-05-02T23:13:46.040Z,100653.00
2023-05-02T23:16:49.976Z,100645.72
2023-05-02T23:19:52.483Z,100652.84
2023-05-02T23:22:55.139Z,100643.94
2023-05-02T23:25:58.313Z,100657.09
2023-05-02T23:29:01.213Z,100650.75
2023-05-02T23:32:04.808Z,100655.38
2023-05-02T23:35:07.962Z,100661.19
2023-05-02T23:38:10.635Z,100652.09
2023-05-02T23:41:13.192Z,100650.16
2023-05-02T23:44:15.832Z,100646.09
2023-05-02T23:47:18.398Z,100641.78
2023-05-02T23:50:20.945Z,100639.88
2023-05-02T23:53:23.407Z,100634.84
2023-05-02T23:56:26.744Z,100632.38
2023-05-02T23:59:29.205Z,100633.38
